sensor_id;sensor_type;location;lat;lon;timestamp;P1;durP1;ratioP1;P2;durP2;ratioP2
11709;SDS011;5911;51.036;6.972;2023-06-19T00:00:17;9.82;;;7.32;;
11709;SDS011;5911;51.036;6.972;2023-06-19T00:02:47;10.57;;;7.63;;
11709;SDS011;5911;51.036;6.972;2023-06-19T00:05:15;12.35;;;8.25;;
11709;SDS011;5911;51.036;6.972;2023-06-19T00:07:42;14.25;;;8.27;;
11709;SDS011;5911;51.036;6.972;2023-06-19T00:10:10;10.10;;;7.32;;
11709;SDS011;5911;51.036;6.972;2023-06-19T00:12:38;9.80;;;6.80;;
11709;SDS011;5911;51.036;6.972;2023-06-19T00:15:08;8.02;;;6.68;;
11709;SDS011;5911;51.036;6.972;2023-06-19T00:17:37;6.50;;;5.78;;
11709;SDS011;5911;51.036;6.972;2023-06-19T00:20:09;5.38;;;4.88;;
11709;SDS011;5911;51.036;6.972;2023-06-19T00:22:40;5.53;;;5.03;;
11709;SDS011;5911;51.036;6.972;2023-06-19T00:25:09;5.55;;;5.00;;
11709;SDS011;5911;51.036;6.972;2023-06-19T00:27:46;5.90;;;5.18;;
11709;SDS011;5911;51.036;6.972;2023-06-19T00:30:16;5.65;;;5.13;;
11709;SDS011;5911;51.036;6.972;2023-06-19T00:32:44;5.15;;;4.60;;
11709;SDS011;5911;51.036;6.972;2023-06-19T00:35:15;6.03;;;4.97;;
11709;SDS011;5911;51.036;6.972;2023-06-19T00:37:48;5.43;;;5.03;;
11709;SDS011;5911;51.036;6.972;2023-06-19T00:40:21;4.72;;;4.28;;
11709;SDS011;5911;51.036;6.972;2023-06-19T00:42:55;5.30;;;4.45;;
11709;SDS011;5911;51.036;6.972;2023-06-19T00:45:23;6.28;;;4.95;;
11709;SDS011;5911;51.036;6.972;2023-06-19T00:47:52;6.30;;;5.70;;
11709;SDS011;5911;51.036;6.972;2023-06-19T00:50:24;7.85;;;5.82;;
11709;SDS011;5911;51.036;6.972;2023-06-19T00:52:55;8.30;;;6.00;;
11709;SDS011;5911;51.036;6.972;2023-06-19T00:55:23;8.50;;;6.47;;
11709;SDS011;5911;51.036;6.972;2023-06-19T00:57:53;8.68;;;6.97;;
11709;SDS011;5911;51.036;6.972;2023-06-19T01:00:24;7.60;;;6.30;;
11709;SDS011;5911;51.036;6.972;2023-06-19T01:02:52;7.70;;;5.97;;
11709;SDS011;5911;51.036;6.972;2023-06-19T01:05:20;6.55;;;5.85;;
11709;SDS011;5911;51.036;6.972;2023-06-19T01:07:54;5.40;;;4.90;;
11709;SDS011;5911;51.036;6.972;2023-06-19T01:10:30;5.63;;;5.13;;
11709;SDS011;5911;51.036;6.972;2023-06-19T01:13:10;5.43;;;4.93;;
11709;SDS011;5911;51.036;6.972;2023-06-19T01:15:49;5.15;;;4.65;;
11709;SDS011;5911;51.036;6.972;2023-06-19T01:18:20;5.40;;;4.93;;
11709;SDS011;5911;51.036;6.972;2023-06-19T01:20:49;7.78;;;5.70;;
11709;SDS011;5911;51.036;6.972;2023-06-19T01:23:18;6.18;;;5.57;;
11709;SDS011;5911;51.036;6.972;2023-06-19T01:25:46;6.15;;;5.53;;
11709;SDS011;5911;51.036;6.972;2023-06-19T01:28:14;5.88;;;5.38;;
11709;SDS011;5911;51.036;6.972;2023-06-19T01:30:42;6.70;;;6.10;;
11709;SDS011;5911;51.036;6.972;2023-06-19T01:33:12;6.30;;;5.75;;
11709;SDS011;5911;51.036;6.972;2023-06-19T01:35:46;6.47;;;5.97;;
11709;SDS011;5911;51.036;6.972;2023-06-19T01:38:16;7.20;;;5.82;;
11709;SDS011;5911;51.036;6.972;2023-06-19T01:40:48;6.03;;;5.53;;
11709;SDS011;5911;51.036;6.972;2023-06-19T01:43:17;7.30;;;5.65;;
11709;SDS011;5911;51.036;6.972;2023-06-19T01:45:47;6.13;;;5.63;;
11709;SDS011;5911;51.036;6.972;2023-06-19T01:48:15;6.75;;;5.55;;
11709;SDS011;5911;51.036;6.972;2023-06-19T01:50:44;6.80;;;6.20;;
11709;SDS011;5911;51.036;6.972;2023-06-19T01:53:13;7.13;;;6.43;;
11709;SDS011;5911;51.036;6.972;2023-06-19T01:55:40;6.85;;;6.03;;
11709;SDS011;5911;51.036;6.972;2023-06-19T01:58:10;6.10;;;5.60;;
11709;SDS011;5911;51.036;6.972;2023-06-19T02:00:37;6.38;;;5.88;;
11709;SDS011;5911;51.036;6.972;2023-06-19T02:03:05;7.13;;;6.43;;
11709;SDS011;5911;51.036;6.972;2023-06-19T02:05:33;8.95;;;6.20;;
11709;SDS011;5911;51.036;6.972;2023-06-19T02:08:08;6.75;;;6.25;;
11709;SDS011;5911;51.036;6.972;2023-06-19T02:10:35;6.35;;;5.75;;
11709;SDS011;5911;51.036;6.972;2023-06-19T02:13:03;6.65;;;5.93;;
11709;SDS011;5911;51.036;6.972;2023-06-19T02:15:32;6.70;;;6.03;;
11709;SDS011;5911;51.036;6.972;2023-06-19T02:18:00;6.35;;;5.85;;
11709;SDS011;5911;51.036;6.972;2023-06-19T02:20:28;7.00;;;6.40;;
11709;SDS011;5911;51.036;6.972;2023-06-19T02:22:56;6.57;;;6.07;;
11709;SDS011;5911;51.036;6.972;2023-06-19T02:25:24;6.90;;;6.30;;
11709;SDS011;5911;51.036;6.972;2023-06-19T02:27:51;6.60;;;6.10;;
11709;SDS011;5911;51.036;6.972;2023-06-19T02:30:20;6.68;;;5.80;;
11709;SDS011;5911;51.036;6.972;2023-06-19T02:32:49;7.70;;;6.63;;
11709;SDS011;5911;51.036;6.972;2023-06-19T02:35:18;6.57;;;5.97;;
11709;SDS011;5911;51.036;6.972;2023-06-19T02:37:46;6.38;;;5.75;;
11709;SDS011;5911;51.036;6.972;2023-06-19T02:40:14;6.55;;;5.95;;
11709;SDS011;5911;51.036;6.972;2023-06-19T02:42:42;6.78;;;6.20;;
11709;SDS011;5911;51.036;6.972;2023-06-19T02:45:10;6.45;;;5.82;;
11709;SDS011;5911;51.036;6.972;2023-06-19T02:47:38;6.32;;;5.72;;
11709;SDS011;5911;51.036;6.972;2023-06-19T02:50:07;6.57;;;5.97;;
11709;SDS011;5911;51.036;6.972;2023-06-19T02:52:35;6.95;;;6.45;;
11709;SDS011;5911;51.036;6.972;2023-06-19T02:55:03;8.00;;;6.82;;
11709;SDS011;5911;51.036;6.972;2023-06-19T02:57:33;6.88;;;6.25;;
11709;SDS011;5911;51.036;6.972;2023-06-19T03:00:02;6.75;;;6.18;;
11709;SDS011;5911;51.036;6.972;2023-06-19T03:02:32;6.63;;;5.97;;
11709;SDS011;5911;51.036;6.972;2023-06-19T03:05:00;7.38;;;6.60;;
11709;SDS011;5911;51.036;6.972;2023-06-19T03:07:29;7.15;;;6.45;;
11709;SDS011;5911;51.036;6.972;2023-06-19T03:09:57;7.50;;;6.70;;
11709;SDS011;5911;51.036;6.972;2023-06-19T03:12:25;6.90;;;6.30;;
11709;SDS011;5911;51.036;6.972;2023-06-19T03:14:52;6.72;;;6.13;;
11709;SDS011;5911;51.036;6.972;2023-06-19T03:17:22;10.15;;;7.13;;
11709;SDS011;5911;51.036;6.972;2023-06-19T03:19:50;7.95;;;7.18;;
11709;SDS011;5911;51.036;6.972;2023-06-19T03:22:19;10.00;;;6.78;;
11709;SDS011;5911;51.036;6.972;2023-06-19T03:24:48;12.00;;;7.78;;
11709;SDS011;5911;51.036;6.972;2023-06-19T03:27:19;9.55;;;7.90;;
11709;SDS011;5911;51.036;6.972;2023-06-19T03:29:48;7.93;;;7.13;;
11709;SDS011;5911;51.036;6.972;2023-06-19T03:32:23;8.45;;;7.35;;
11709;SDS011;5911;51.036;6.972;2023-06-19T03:34:50;8.02;;;7.30;;
11709;SDS011;5911;51.036;6.972;2023-06-19T03:37:19;7.63;;;6.93;;
11709;SDS011;5911;51.036;6.972;2023-06-19T03:39:49;8.52;;;7.65;;
11709;SDS011;5911;51.036;6.972;2023-06-19T03:42:17;8.02;;;7.25;;
11709;SDS011;5911;51.036;6.972;2023-06-19T03:44:45;7.85;;;7.15;;
11709;SDS011;5911;51.036;6.972;2023-06-19T03:47:15;6.70;;;6.10;;
11709;SDS011;5911;51.036;6.972;2023-06-19T03:49:44;6.40;;;5.90;;
11709;SDS011;5911;51.036;6.972;2023-06-19T03:52:11;4.75;;;4.35;;
11709;SDS011;5911;51.036;6.972;2023-06-19T03:54:39;4.75;;;4.35;;
11709;SDS011;5911;51.036;6.972;2023-06-19T03:57:09;5.47;;;4.97;;
11709;SDS011;5911;51.036;6.972;2023-06-19T03:59:36;4.97;;;4.00;;
11709;SDS011;5911;51.036;6.972;2023-06-19T04:02:04;4.70;;;4.30;;
11709;SDS011;5911;51.036;6.972;2023-06-19T04:04:32;4.93;;;4.07;;
11709;SDS011;5911;51.036;6.972;2023-06-19T04:07:00;4.85;;;4.22;;
11709;SDS011;5911;51.036;6.972;2023-06-19T04:09:29;7.55;;;4.20;;
11709;SDS011;5911;51.036;6.972;2023-06-19T04:11:56;5.97;;;4.50;;
11709;SDS011;5911;51.036;6.972;2023-06-19T04:14:26;4.13;;;3.83;;
11709;SDS011;5911;51.036;6.972;2023-06-19T04:16:54;5.40;;;4.07;;
11709;SDS011;5911;51.036;6.972;2023-06-19T04:19:26;4.43;;;4.03;;
11709;SDS011;5911;51.036;6.972;2023-06-19T04:21:56;4.95;;;4.40;;
11709;SDS011;5911;51.036;6.972;2023-06-19T04:24:23;5.40;;;4.10;;
11709;SDS011;5911;51.036;6.972;2023-06-19T04:26:51;4.38;;;3.92;;
11709;SDS011;5911;51.036;6.972;2023-06-19T04:29:20;4.13;;;3.67;;
11709;SDS011;5911;51.036;6.972;2023-06-19T04:31:49;4.90;;;3.67;;
11709;SDS011;5911;51.036;6.972;2023-06-19T04:34:17;6.03;;;4.15;;
11709;SDS011;5911;51.036;6.972;2023-06-19T04:36:47;3.88;;;3.58;;
11709;SDS011;5911;51.036;6.972;2023-06-19T04:39:15;4.72;;;3.42;;
11709;SDS011;5911;51.036;6.972;2023-06-19T04:41:43;3.50;;;3.20;;
11709;SDS011;5911;51.036;6.972;2023-06-19T04:44:11;4.32;;;3.15;;
11709;SDS011;5911;51.036;6.972;2023-06-19T04:46:38;2.78;;;2.58;;
11709;SDS011;5911;51.036;6.972;2023-06-19T04:49:08;3.30;;;2.90;;
11709;SDS011;5911;51.036;6.972;2023-06-19T04:51:39;3.42;;;2.75;;
11709;SDS011;5911;51.036;6.972;2023-06-19T04:54:08;3.78;;;3.10;;
11709;SDS011;5911;51.036;6.972;2023-06-19T04:56:35;4.00;;;3.08;;
11709;SDS011;5911;51.036;6.972;2023-06-19T04:59:03;3.47;;;3.17;;
11709;SDS011;5911;51.036;6.972;2023-06-19T05:01:31;4.28;;;3.30;;
11709;SDS011;5911;51.036;6.972;2023-06-19T05:03:59;4.13;;;3.25;;
11709;SDS011;5911;51.036;6.972;2023-06-19T05:06:28;3.50;;;3.20;;
11709;SDS011;5911;51.036;6.972;2023-06-19T05:08:56;4.97;;;3.35;;
11709;SDS011;5911;51.036;6.972;2023-06-19T05:11:23;3.30;;;3.00;;
11709;SDS011;5911;51.036;6.972;2023-06-19T05:13:51;3.20;;;3.00;;
11709;SDS011;5911;51.036;6.972;2023-06-19T05:16:19;4.30;;;3.05;;
11709;SDS011;5911;51.036;6.972;2023-06-19T05:18:46;3.25;;;2.95;;
11709;SDS011;5911;51.036;6.972;2023-06-19T05:21:15;4.10;;;3.28;;
11709;SDS011;5911;51.036;6.972;2023-06-19T05:23:44;4.72;;;3.20;;
11709;SDS011;5911;51.036;6.972;2023-06-19T05:26:13;3.42;;;2.83;;
11709;SDS011;5911;51.036;6.972;2023-06-19T05:28:41;3.25;;;2.95;;
11709;SDS011;5911;51.036;6.972;2023-06-19T05:31:09;4.43;;;3.00;;
11709;SDS011;5911;51.036;6.972;2023-06-19T05:33:37;6.72;;;3.00;;
11709;SDS011;5911;51.036;6.972;2023-06-19T05:36:05;2.88;;;2.60;;
11709;SDS011;5911;51.036;6.972;2023-06-19T05:38:32;4.10;;;2.95;;
11709;SDS011;5911;51.036;6.972;2023-06-19T05:41:02;3.50;;;3.17;;
11709;SDS011;5911;51.036;6.972;2023-06-19T05:43:30;2.85;;;2.65;;
11709;SDS011;5911;51.036;6.972;2023-06-19T05:45:58;3.42;;;2.92;;
11709;SDS011;5911;51.036;6.972;2023-06-19T05:48:26;3.13;;;2.83;;
11709;SDS011;5911;51.036;6.972;2023-06-19T05:50:53;3.55;;;2.70;;
11709;SDS011;5911;51.036;6.972;2023-06-19T05:53:21;2.53;;;2.33;;
11709;SDS011;5911;51.036;6.972;2023-06-19T05:55:49;4.55;;;2.50;;
11709;SDS011;5911;51.036;6.972;2023-06-19T05:58:18;2.80;;;2.60;;
11709;SDS011;5911;51.036;6.972;2023-06-19T06:00:47;3.30;;;2.45;;
11709;SDS011;5911;51.036;6.972;2023-06-19T06:03:15;3.83;;;2.53;;
11709;SDS011;5911;51.036;6.972;2023-06-19T06:05:43;3.42;;;2.15;;
11709;SDS011;5911;51.036;6.972;2023-06-19T06:08:15;2.53;;;2.22;;
11709;SDS011;5911;51.036;6.972;2023-06-19T06:10:43;2.25;;;2.05;;
11709;SDS011;5911;51.036;6.972;2023-06-19T06:13:10;2.80;;;2.03;;
11709;SDS011;5911;51.036;6.972;2023-06-19T06:15:40;1.88;;;1.73;;
11709;SDS011;5911;51.036;6.972;2023-06-19T06:18:07;2.30;;;2.00;;
11709;SDS011;5911;51.036;6.972;2023-06-19T06:20:35;7.30;;;2.33;;
11709;SDS011;5911;51.036;6.972;2023-06-19T06:23:03;1.83;;;1.73;;
11709;SDS011;5911;51.036;6.972;2023-06-19T06:25:31;2.67;;;1.75;;
11709;SDS011;5911;51.036;6.972;2023-06-19T06:27:59;2.30;;;1.83;;
11709;SDS011;5911;51.036;6.972;2023-06-19T06:30:27;1.70;;;1.60;;
11709;SDS011;5911;51.036;6.972;2023-06-19T06:32:56;3.08;;;1.83;;
11709;SDS011;5911;51.036;6.972;2023-06-19T06:35:24;2.47;;;1.77;;
11709;SDS011;5911;51.036;6.972;2023-06-19T06:37:52;3.50;;;1.80;;
11709;SDS011;5911;51.036;6.972;2023-06-19T06:40:19;1.67;;;1.58;;
11709;SDS011;5911;51.036;6.972;2023-06-19T06:42:48;2.20;;;1.48;;
11709;SDS011;5911;51.036;6.972;2023-06-19T06:45:16;2.30;;;1.35;;
11709;SDS011;5911;51.036;6.972;2023-06-19T06:47:44;1.90;;;1.60;;
11709;SDS011;5911;51.036;6.972;2023-06-19T06:50:13;1.98;;;1.55;;
11709;SDS011;5911;51.036;6.972;2023-06-19T06:52:41;1.95;;;1.80;;
11709;SDS011;5911;51.036;6.972;2023-06-19T06:55:09;2.05;;;1.60;;
11709;SDS011;5911;51.036;6.972;2023-06-19T06:57:37;4.95;;;1.60;;
11709;SDS011;5911;51.036;6.972;2023-06-19T07:00:05;2.20;;;1.58;;
11709;SDS011;5911;51.036;6.972;2023-06-19T07:02:37;2.35;;;1.67;;
11709;SDS011;5911;51.036;6.972;2023-06-19T07:05:06;2.35;;;1.77;;
11709;SDS011;5911;51.036;6.972;2023-06-19T07:07:37;2.65;;;1.30;;
11709;SDS011;5911;51.036;6.972;2023-06-19T07:10:05;1.60;;;1.50;;
11709;SDS011;5911;51.036;6.972;2023-06-19T07:12:33;2.78;;;1.50;;
11709;SDS011;5911;51.036;6.972;2023-06-19T07:15:01;4.80;;;1.88;;
11709;SDS011;5911;51.036;6.972;2023-06-19T07:17:30;2.20;;;1.50;;
11709;SDS011;5911;51.036;6.972;2023-06-19T07:19:58;3.90;;;1.40;;
11709;SDS011;5911;51.036;6.972;2023-06-19T07:22:25;1.95;;;1.73;;
11709;SDS011;5911;51.036;6.972;2023-06-19T07:24:55;5.53;;;2.00;;
11709;SDS011;5911;51.036;6.972;2023-06-19T07:27:22;3.80;;;2.08;;
11709;SDS011;5911;51.036;6.972;2023-06-19T07:29:53;1.67;;;1.48;;
11709;SDS011;5911;51.036;6.972;2023-06-19T07:32:21;2.80;;;1.70;;
11709;SDS011;5911;51.036;6.972;2023-06-19T07:34:49;4.45;;;1.77;;
11709;SDS011;5911;51.036;6.972;2023-06-19T07:37:17;2.20;;;1.70;;
11709;SDS011;5911;51.036;6.972;2023-06-19T07:39:45;3.38;;;1.65;;
11709;SDS011;5911;51.036;6.972;2023-06-19T07:42:14;2.70;;;1.55;;
11709;SDS011;5911;51.036;6.972;2023-06-19T07:44:43;2.55;;;1.70;;
11709;SDS011;5911;51.036;6.972;2023-06-19T07:47:11;6.60;;;2.10;;
11709;SDS011;5911;51.036;6.972;2023-06-19T07:49:40;4.00;;;1.90;;
11709;SDS011;5911;51.036;6.972;2023-06-19T07:52:07;2.78;;;1.83;;
11709;SDS011;5911;51.036;6.972;2023-06-19T07:54:36;1.83;;;1.60;;
11709;SDS011;5911;51.036;6.972;2023-06-19T07:57:17;3.58;;;2.10;;
11709;SDS011;5911;51.036;6.972;2023-06-19T07:59:44;4.18;;;2.20;;
11709;SDS011;5911;51.036;6.972;2023-06-19T08:02:14;5.22;;;1.80;;
11709;SDS011;5911;51.036;6.972;2023-06-19T08:04:42;3.92;;;2.08;;
11709;SDS011;5911;51.036;6.972;2023-06-19T08:07:09;2.50;;;1.85;;
11709;SDS011;5911;51.036;6.972;2023-06-19T08:09:38;3.53;;;1.90;;
11709;SDS011;5911;51.036;6.972;2023-06-19T08:12:06;3.67;;;2.05;;
11709;SDS011;5911;51.036;6.972;2023-06-19T08:14:36;3.60;;;2.00;;
11709;SDS011;5911;51.036;6.972;2023-06-19T08:17:04;3.38;;;1.92;;
11709;SDS011;5911;51.036;6.972;2023-06-19T08:19:33;3.55;;;2.17;;
11709;SDS011;5911;51.036;6.972;2023-06-19T08:22:00;3.53;;;1.77;;
11709;SDS011;5911;51.036;6.972;2023-06-19T08:24:28;6.72;;;2.35;;
11709;SDS011;5911;51.036;6.972;2023-06-19T08:26:56;3.85;;;1.98;;
11709;SDS011;5911;51.036;6.972;2023-06-19T08:29:24;4.32;;;2.47;;
11709;SDS011;5911;51.036;6.972;2023-06-19T08:31:54;4.45;;;2.10;;
11709;SDS011;5911;51.036;6.972;2023-06-19T08:34:21;2.17;;;1.95;;
11709;SDS011;5911;51.036;6.972;2023-06-19T08:36:49;2.92;;;2.03;;
11709;SDS011;5911;51.036;6.972;2023-06-19T08:39:17;4.03;;;2.22;;
11709;SDS011;5911;51.036;6.972;2023-06-19T08:41:46;4.15;;;1.90;;
11709;SDS011;5911;51.036;6.972;2023-06-19T08:44:14;5.25;;;2.20;;
11709;SDS011;5911;51.036;6.972;2023-06-19T08:46:42;4.30;;;2.20;;
11709;SDS011;5911;51.036;6.972;2023-06-19T08:49:11;3.25;;;2.15;;
11709;SDS011;5911;51.036;6.972;2023-06-19T08:51:40;6.03;;;3.08;;
11709;SDS011;5911;51.036;6.972;2023-06-19T08:54:08;5.75;;;2.97;;
11709;SDS011;5911;51.036;6.972;2023-06-19T08:56:38;5.65;;;2.75;;
11709;SDS011;5911;51.036;6.972;2023-06-19T08:59:09;5.75;;;2.50;;
11709;SDS011;5911;51.036;6.972;2023-06-19T09:01:38;6.85;;;2.67;;
11709;SDS011;5911;51.036;6.972;2023-06-19T09:04:11;6.60;;;2.60;;
11709;SDS011;5911;51.036;6.972;2023-06-19T09:06:47;7.45;;;3.20;;
11709;SDS011;5911;51.036;6.972;2023-06-19T09:09:15;3.92;;;2.97;;
11709;SDS011;5911;51.036;6.972;2023-06-19T09:11:43;9.07;;;3.65;;
11709;SDS011;5911;51.036;6.972;2023-06-19T09:14:24;5.25;;;3.15;;
11709;SDS011;5911;51.036;6.972;2023-06-19T09:16:58;6.00;;;3.35;;
11709;SDS011;5911;51.036;6.972;2023-06-19T09:19:27;6.65;;;4.18;;
11709;SDS011;5911;51.036;6.972;2023-06-19T09:21:59;7.05;;;4.13;;
11709;SDS011;5911;51.036;6.972;2023-06-19T09:24:33;7.55;;;4.70;;
11709;SDS011;5911;51.036;6.972;2023-06-19T09:27:06;11.00;;;4.55;;
11709;SDS011;5911;51.036;6.972;2023-06-19T09:29:36;6.80;;;4.35;;
11709;SDS011;5911;51.036;6.972;2023-06-19T09:32:14;4.40;;;3.63;;
11709;SDS011;5911;51.036;6.972;2023-06-19T09:34:48;4.28;;;3.63;;
11709;SDS011;5911;51.036;6.972;2023-06-19T09:37:17;7.60;;;3.70;;
11709;SDS011;5911;51.036;6.972;2023-06-19T09:39:50;9.52;;;3.85;;
11709;SDS011;5911;51.036;6.972;2023-06-19T09:42:22;7.97;;;3.85;;
11709;SDS011;5911;51.036;6.972;2023-06-19T09:44:55;11.95;;;3.70;;
11709;SDS011;5911;51.036;6.972;2023-06-19T09:47:29;6.28;;;3.95;;
11709;SDS011;5911;51.036;6.972;2023-06-19T09:50:00;5.88;;;3.70;;
11709;SDS011;5911;51.036;6.972;2023-06-19T09:52:29;10.10;;;3.30;;
11709;SDS011;5911;51.036;6.972;2023-06-19T09:55:01;5.22;;;3.55;;
11709;SDS011;5911;51.036;6.972;2023-06-19T09:57:30;6.03;;;3.78;;
11709;SDS011;5911;51.036;6.972;2023-06-19T09:59:59;8.48;;;3.85;;
11709;SDS011;5911;51.036;6.972;2023-06-19T10:02:37;4.75;;;4.15;;
11709;SDS011;5911;51.036;6.972;2023-06-19T10:05:09;9.00;;;4.10;;
11709;SDS011;5911;51.036;6.972;2023-06-19T10:07:41;4.95;;;3.97;;
11709;SDS011;5911;51.036;6.972;2023-06-19T10:10:10;5.20;;;4.20;;
11709;SDS011;5911;51.036;6.972;2023-06-19T10:12:49;5.00;;;3.58;;
11709;SDS011;5911;51.036;6.972;2023-06-19T10:15:18;6.78;;;3.92;;
11709;SDS011;5911;51.036;6.972;2023-06-19T10:17:47;5.65;;;3.90;;
11709;SDS011;5911;51.036;6.972;2023-06-19T10:20:24;4.30;;;3.90;;
11709;SDS011;5911;51.036;6.972;2023-06-19T10:22:58;5.45;;;4.00;;
11709;SDS011;5911;51.036;6.972;2023-06-19T10:25:30;10.13;;;4.13;;
11709;SDS011;5911;51.036;6.972;2023-06-19T10:27:59;6.35;;;4.60;;
11709;SDS011;5911;51.036;6.972;2023-06-19T10:30:28;6.10;;;3.72;;
11709;SDS011;5911;51.036;6.972;2023-06-19T10:32:56;9.65;;;4.63;;
11709;SDS011;5911;51.036;6.972;2023-06-19T10:35:26;5.25;;;3.58;;
11709;SDS011;5911;51.036;6.972;2023-06-19T10:37:54;5.13;;;3.85;;
11709;SDS011;5911;51.036;6.972;2023-06-19T10:40:22;7.78;;;4.28;;
11709;SDS011;5911;51.036;6.972;2023-06-19T10:42:50;5.38;;;3.75;;
11709;SDS011;5911;51.036;6.972;2023-06-19T10:45:18;7.32;;;4.30;;
11709;SDS011;5911;51.036;6.972;2023-06-19T10:47:47;6.22;;;4.07;;
11709;SDS011;5911;51.036;6.972;2023-06-19T10:50:15;7.13;;;3.60;;
11709;SDS011;5911;51.036;6.972;2023-06-19T10:52:44;5.35;;;3.90;;
11709;SDS011;5911;51.036;6.972;2023-06-19T10:55:14;4.50;;;3.40;;
11709;SDS011;5911;51.036;6.972;2023-06-19T10:57:44;4.65;;;3.80;;
11709;SDS011;5911;51.036;6.972;2023-06-19T11:00:21;6.40;;;3.97;;
11709;SDS011;5911;51.036;6.972;2023-06-19T11:02:51;4.50;;;3.58;;
11709;SDS011;5911;51.036;6.972;2023-06-19T11:05:20;7.40;;;3.85;;
11709;SDS011;5911;51.036;6.972;2023-06-19T11:07:53;5.18;;;3.97;;
11709;SDS011;5911;51.036;6.972;2023-06-19T11:10:23;5.32;;;3.80;;
11709;SDS011;5911;51.036;6.972;2023-06-19T11:12:53;6.65;;;3.92;;
11709;SDS011;5911;51.036;6.972;2023-06-19T11:15:28;4.93;;;3.22;;
11709;SDS011;5911;51.036;6.972;2023-06-19T11:17:57;4.35;;;3.58;;
11709;SDS011;5911;51.036;6.972;2023-06-19T11:20:25;4.57;;;3.42;;
11709;SDS011;5911;51.036;6.972;2023-06-19T11:22:56;6.40;;;4.07;;
11709;SDS011;5911;51.036;6.972;2023-06-19T11:25:34;4.15;;;3.50;;
11709;SDS011;5911;51.036;6.972;2023-06-19T11:28:02;9.20;;;4.63;;
11709;SDS011;5911;51.036;6.972;2023-06-19T11:30:31;4.63;;;3.75;;
11709;SDS011;5911;51.036;6.972;2023-06-19T11:33:00;5.13;;;3.70;;
11709;SDS011;5911;51.036;6.972;2023-06-19T11:35:32;6.28;;;3.92;;
11709;SDS011;5911;51.036;6.972;2023-06-19T11:38:06;4.35;;;3.50;;
11709;SDS011;5911;51.036;6.972;2023-06-19T11:40:38;4.53;;;3.50;;
11709;SDS011;5911;51.036;6.972;2023-06-19T11:43:07;5.25;;;3.92;;
11709;SDS011;5911;51.036;6.972;2023-06-19T11:45:44;5.00;;;3.65;;
11709;SDS011;5911;51.036;6.972;2023-06-19T11:48:14;4.03;;;3.65;;
11709;SDS011;5911;51.036;6.972;2023-06-19T11:50:42;4.93;;;3.53;;
11709;SDS011;5911;51.036;6.972;2023-06-19T11:53:11;4.28;;;3.80;;
11709;SDS011;5911;51.036;6.972;2023-06-19T11:55:39;10.07;;;3.83;;
11709;SDS011;5911;51.036;6.972;2023-06-19T11:58:07;5.22;;;3.10;;
11709;SDS011;5911;51.036;6.972;2023-06-19T12:00:35;4.50;;;3.22;;
11709;SDS011;5911;51.036;6.972;2023-06-19T12:03:03;5.20;;;3.50;;
11709;SDS011;5911;51.036;6.972;2023-06-19T12:05:32;4.35;;;3.50;;
11709;SDS011;5911;51.036;6.972;2023-06-19T12:07:59;6.40;;;3.63;;
11709;SDS011;5911;51.036;6.972;2023-06-19T12:10:30;4.38;;;3.97;;
11709;SDS011;5911;51.036;6.972;2023-06-19T12:12:58;5.70;;;4.35;;
11709;SDS011;5911;51.036;6.972;2023-06-19T12:15:26;4.47;;;3.83;;
11709;SDS011;5911;51.036;6.972;2023-06-19T12:17:54;5.53;;;3.90;;
11709;SDS011;5911;51.036;6.972;2023-06-19T12:20:24;3.70;;;3.40;;
11709;SDS011;5911;51.036;6.972;2023-06-19T12:22:52;3.75;;;3.13;;
11709;SDS011;5911;51.036;6.972;2023-06-19T12:25:20;4.53;;;3.30;;
11709;SDS011;5911;51.036;6.972;2023-06-19T12:27:49;5.40;;;3.20;;
11709;SDS011;5911;51.036;6.972;2023-06-19T12:30:20;5.03;;;3.78;;
11709;SDS011;5911;51.036;6.972;2023-06-19T12:32:49;4.53;;;3.63;;
11709;SDS011;5911;51.036;6.972;2023-06-19T12:35:17;4.95;;;3.85;;
11709;SDS011;5911;51.036;6.972;2023-06-19T12:37:47;4.45;;;4.05;;
11709;SDS011;5911;51.036;6.972;2023-06-19T12:40:14;4.88;;;3.70;;
11709;SDS011;5911;51.036;6.972;2023-06-19T12:42:43;4.43;;;3.70;;
11709;SDS011;5911;51.036;6.972;2023-06-19T12:45:12;4.13;;;3.60;;
11709;SDS011;5911;51.036;6.972;2023-06-19T12:47:40;6.30;;;4.13;;
11709;SDS011;5911;51.036;6.972;2023-06-19T12:50:08;5.63;;;3.85;;
11709;SDS011;5911;51.036;6.972;2023-06-19T12:52:37;5.25;;;3.70;;
11709;SDS011;5911;51.036;6.972;2023-06-19T12:55:08;6.05;;;3.55;;
11709;SDS011;5911;51.036;6.972;2023-06-19T12:57:38;5.20;;;4.10;;
11709;SDS011;5911;51.036;6.972;2023-06-19T13:00:10;6.32;;;4.00;;
11709;SDS011;5911;51.036;6.972;2023-06-19T13:02:41;5.88;;;4.00;;
11709;SDS011;5911;51.036;6.972;2023-06-19T13:05:10;7.15;;;4.50;;
11709;SDS011;5911;51.036;6.972;2023-06-19T13:07:38;7.20;;;4.00;;
11709;SDS011;5911;51.036;6.972;2023-06-19T13:10:05;8.55;;;3.70;;
11709;SDS011;5911;51.036;6.972;2023-06-19T13:12:36;5.45;;;3.55;;
11709;SDS011;5911;51.036;6.972;2023-06-19T13:15:04;5.88;;;3.75;;
11709;SDS011;5911;51.036;6.972;2023-06-19T13:17:34;8.10;;;3.92;;
11709;SDS011;5911;51.036;6.972;2023-06-19T13:20:04;4.57;;;3.65;;
11709;SDS011;5911;51.036;6.972;2023-06-19T13:22:33;5.53;;;3.90;;
11709;SDS011;5911;51.036;6.972;2023-06-19T13:25:01;5.15;;;4.43;;
11709;SDS011;5911;51.036;6.972;2023-06-19T13:27:28;5.40;;;4.13;;
11709;SDS011;5911;51.036;6.972;2023-06-19T13:29:56;5.28;;;4.00;;
11709;SDS011;5911;51.036;6.972;2023-06-19T13:32:24;8.57;;;4.20;;
11709;SDS011;5911;51.036;6.972;2023-06-19T13:34:52;5.05;;;4.20;;
11709;SDS011;5911;51.036;6.972;2023-06-19T13:37:21;4.18;;;3.80;;
11709;SDS011;5911;51.036;6.972;2023-06-19T13:39:49;5.05;;;3.85;;
11709;SDS011;5911;51.036;6.972;2023-06-19T13:42:17;6.05;;;3.92;;
11709;SDS011;5911;51.036;6.972;2023-06-19T13:44:44;6.22;;;3.50;;
11709;SDS011;5911;51.036;6.972;2023-06-19T13:47:16;8.55;;;4.07;;
11709;SDS011;5911;51.036;6.972;2023-06-19T13:49:46;4.93;;;3.60;;
11709;SDS011;5911;51.036;6.972;2023-06-19T13:52:16;6.93;;;3.88;;
11709;SDS011;5911;51.036;6.972;2023-06-19T13:54:45;4.53;;;3.42;;
11709;SDS011;5911;51.036;6.972;2023-06-19T13:57:13;3.95;;;3.15;;
11709;SDS011;5911;51.036;6.972;2023-06-19T13:59:40;5.55;;;3.47;;
11709;SDS011;5911;51.036;6.972;2023-06-19T14:02:09;5.22;;;3.45;;
11709;SDS011;5911;51.036;6.972;2023-06-19T14:04:38;6.07;;;3.83;;
11709;SDS011;5911;51.036;6.972;2023-06-19T14:07:07;5.72;;;3.80;;
11709;SDS011;5911;51.036;6.972;2023-06-19T14:09:35;3.50;;;3.20;;
11709;SDS011;5911;51.036;6.972;2023-06-19T14:12:07;3.85;;;3.33;;
11709;SDS011;5911;51.036;6.972;2023-06-19T14:14:36;5.05;;;3.80;;
11709;SDS011;5911;51.036;6.972;2023-06-19T14:17:04;5.10;;;3.95;;
11709;SDS011;5911;51.036;6.972;2023-06-19T14:19:32;5.00;;;3.60;;
11709;SDS011;5911;51.036;6.972;2023-06-19T14:22:00;4.35;;;3.85;;
11709;SDS011;5911;51.036;6.972;2023-06-19T14:24:28;4.22;;;3.58;;
11709;SDS011;5911;51.036;6.972;2023-06-19T14:26:56;5.35;;;3.42;;
11709;SDS011;5911;51.036;6.972;2023-06-19T14:29:25;5.05;;;3.55;;
11709;SDS011;5911;51.036;6.972;2023-06-19T14:31:53;4.93;;;3.40;;
11709;SDS011;5911;51.036;6.972;2023-06-19T14:34:21;5.22;;;3.70;;
11709;SDS011;5911;51.036;6.972;2023-06-19T14:36:49;4.95;;;3.42;;
11709;SDS011;5911;51.036;6.972;2023-06-19T14:39:17;4.97;;;3.25;;
11709;SDS011;5911;51.036;6.972;2023-06-19T14:41:44;4.18;;;3.50;;
11709;SDS011;5911;51.036;6.972;2023-06-19T14:44:12;6.30;;;3.40;;
11709;SDS011;5911;51.036;6.972;2023-06-19T14:46:42;4.03;;;3.55;;
11709;SDS011;5911;51.036;6.972;2023-06-19T14:49:11;4.22;;;3.83;;
11709;SDS011;5911;51.036;6.972;2023-06-19T14:51:41;4.90;;;3.40;;
11709;SDS011;5911;51.036;6.972;2023-06-19T14:54:09;3.92;;;3.45;;
11709;SDS011;5911;51.036;6.972;2023-06-19T14:56:36;5.13;;;3.28;;
11709;SDS011;5911;51.036;6.972;2023-06-19T14:59:04;6.13;;;3.15;;
11709;SDS011;5911;51.036;6.972;2023-06-19T15:01:32;3.70;;;3.40;;
11709;SDS011;5911;51.036;6.972;2023-06-19T15:04:01;5.93;;;3.60;;
11709;SDS011;5911;51.036;6.972;2023-06-19T15:06:29;4.10;;;3.70;;
11709;SDS011;5911;51.036;6.972;2023-06-19T15:08:57;3.97;;;3.55;;
11709;SDS011;5911;51.036;6.972;2023-06-19T15:11:28;5.72;;;3.58;;